sensor_id;sensor_type;location;lat;lon;timestamp;P1;durP1;ratioP1;P2;durP2;ratioP2
22103;SDS011;11218;48.886;9.426;2023-06-10T00:00:04;655.20;;;303.13;;
22103;SDS011;11218;48.886;9.426;2023-06-10T00:02:35;684.22;;;320.50;;
22103;SDS011;11218;48.886;9.426;2023-06-10T00:05:03;670.38;;;315.63;;
22103;SDS011;11218;48.886;9.426;2023-06-10T00:07:32;721.58;;;359.27;;
22103;SDS011;11218;48.886;9.426;2023-06-10T00:10:03;730.72;;;364.50;;
22103;SDS011;11218;48.886;9.426;2023-06-10T00:12:32;707.53;;;346.88;;
22103;SDS011;11218;48.886;9.426;2023-06-10T00:15:03;732.35;;;379.90;;
22103;SDS011;11218;48.886;9.426;2023-06-10T00:17:47;750.70;;;396.88;;
22103;SDS011;11218;48.886;9.426;2023-06-10T00:20:29;715.40;;;346.60;;
22103;SDS011;11218;48.886;9.426;2023-06-10T00:22:58;712.65;;;352.88;;
22103;SDS011;11218;48.886;9.426;2023-06-10T00:25:27;749.95;;;382.20;;
22103;SDS011;11218;48.886;9.426;2023-06-10T00:27:56;723.25;;;346.13;;
22103;SDS011;11218;48.886;9.426;2023-06-10T00:30:24;712.60;;;347.00;;
22103;SDS011;11218;48.886;9.426;2023-06-10T00:32:54;736.47;;;360.45;;
22103;SDS011;11218;48.886;9.426;2023-06-10T00:35:22;690.83;;;325.50;;
22103;SDS011;11218;48.886;9.426;2023-06-10T00:37:50;663.20;;;308.55;;
22103;SDS011;11218;48.886;9.426;2023-06-10T00:40:19;648.78;;;298.38;;
22103;SDS011;11218;48.886;9.426;2023-06-10T00:42:47;652.35;;;302.52;;
22103;SDS011;11218;48.886;9.426;2023-06-10T00:45:15;682.55;;;318.50;;
22103;SDS011;11218;48.886;9.426;2023-06-10T00:47:43;683.85;;;322.92;;
22103;SDS011;11218;48.886;9.426;2023-06-10T00:50:13;680.10;;;317.33;;
22103;SDS011;11218;48.886;9.426;2023-06-10T00:52:41;693.25;;;329.98;;
22103;SDS011;11218;48.886;9.426;2023-06-10T00:55:12;715.08;;;347.70;;
22103;SDS011;11218;48.886;9.426;2023-06-10T00:57:41;667.75;;;299.85;;
22103;SDS011;11218;48.886;9.426;2023-06-10T01:00:11;694.75;;;325.73;;
22103;SDS011;11218;48.886;9.426;2023-06-10T01:02:40;722.10;;;342.50;;
22103;SDS011;11218;48.886;9.426;2023-06-10T01:05:09;734.92;;;349.00;;
22103;SDS011;11218;48.886;9.426;2023-06-10T01:07:43;713.65;;;336.65;;
22103;SDS011;11218;48.886;9.426;2023-06-10T01:10:20;721.10;;;344.02;;
22103;SDS011;11218;48.886;9.426;2023-06-10T01:12:58;716.88;;;335.08;;
22103;SDS011;11218;48.886;9.426;2023-06-10T01:15:29;684.45;;;309.17;;
22103;SDS011;11218;48.886;9.426;2023-06-10T01:17:59;720.08;;;346.00;;
22103;SDS011;11218;48.886;9.426;2023-06-10T01:20:29;707.65;;;334.52;;
22103;SDS011;11218;48.886;9.426;2023-06-10T01:23:01;707.10;;;334.52;;
22103;SDS011;11218;48.886;9.426;2023-06-10T01:25:30;714.95;;;341.33;;
22103;SDS011;11218;48.886;9.426;2023-06-10T01:28:04;681.13;;;315.05;;
22103;SDS011;11218;48.886;9.426;2023-06-10T01:30:39;670.08;;;303.88;;
22103;SDS011;11218;48.886;9.426;2023-06-10T01:33:14;685.63;;;319.63;;
22103;SDS011;11218;48.886;9.426;2023-06-10T01:35:45;665.47;;;311.48;;
22103;SDS011;11218;48.886;9.426;2023-06-10T01:38:16;684.95;;;321.05;;
22103;SDS011;11218;48.886;9.426;2023-06-10T01:40:48;678.40;;;306.17;;
22103;SDS011;11218;48.886;9.426;2023-06-10T01:43:16;681.42;;;314.75;;
22103;SDS011;11218;48.886;9.426;2023-06-10T01:45:45;644.90;;;290.00;;
22103;SDS011;11218;48.886;9.426;2023-06-10T01:48:13;629.67;;;274.33;;
22103;SDS011;11218;48.886;9.426;2023-06-10T01:50:41;616.83;;;265.83;;
22103;SDS011;11218;48.886;9.426;2023-06-10T01:53:10;611.70;;;267.23;;
22103;SDS011;11218;48.886;9.426;2023-06-10T01:55:40;645.60;;;292.67;;
22103;SDS011;11218;48.886;9.426;2023-06-10T01:58:08;632.05;;;281.30;;
22103;SDS011;11218;48.886;9.426;2023-06-10T02:00:36;640.58;;;286.70;;
22103;SDS011;11218;48.886;9.426;2023-06-10T02:03:04;631.35;;;279.85;;
22103;SDS011;11218;48.886;9.426;2023-06-10T02:05:32;628.90;;;276.48;;
22103;SDS011;11218;48.886;9.426;2023-06-10T02:08:00;595.15;;;248.95;;
22103;SDS011;11218;48.886;9.426;2023-06-10T02:10:29;592.78;;;245.02;;
22103;SDS011;11218;48.886;9.426;2023-06-10T02:12:58;599.80;;;256.73;;
22103;SDS011;11218;48.886;9.426;2023-06-10T02:15:26;597.15;;;250.80;;
22103;SDS011;11218;48.886;9.426;2023-06-10T02:17:54;582.85;;;245.18;;
22103;SDS011;11218;48.886;9.426;2023-06-10T02:20:23;602.83;;;258.42;;
22103;SDS011;11218;48.886;9.426;2023-06-10T02:22:51;598.78;;;250.50;;
22103;SDS011;11218;48.886;9.426;2023-06-10T02:25:19;613.55;;;264.70;;
22103;SDS011;11218;48.886;9.426;2023-06-10T02:27:48;619.50;;;261.40;;
22103;SDS011;11218;48.886;9.426;2023-06-10T02:30:17;610.08;;;256.85;;
22103;SDS011;11218;48.886;9.426;2023-06-10T02:32:45;600.67;;;250.20;;
22103;SDS011;11218;48.886;9.426;2023-06-10T02:35:15;608.58;;;254.90;;
22103;SDS011;11218;48.886;9.426;2023-06-10T02:37:43;627.08;;;269.15;;
22103;SDS011;11218;48.886;9.426;2023-06-10T02:40:12;587.67;;;243.85;;
22103;SDS011;11218;48.886;9.426;2023-06-10T02:42:40;606.28;;;249.07;;
22103;SDS011;11218;48.886;9.426;2023-06-10T02:45:08;591.38;;;243.63;;
22103;SDS011;11218;48.886;9.426;2023-06-10T02:47:38;581.40;;;240.23;;
22103;SDS011;11218;48.886;9.426;2023-06-10T02:50:07;579.80;;;237.23;;
22103;SDS011;11218;48.886;9.426;2023-06-10T02:52:36;606.45;;;259.17;;
22103;SDS011;11218;48.886;9.426;2023-06-10T02:55:04;634.45;;;274.58;;
22103;SDS011;11218;48.886;9.426;2023-06-10T02:57:33;630.80;;;267.00;;
22103;SDS011;11218;48.886;9.426;2023-06-10T03:00:01;650.83;;;280.83;;
22103;SDS011;11218;48.886;9.426;2023-06-10T03:02:35;620.55;;;257.08;;
22103;SDS011;11218;48.886;9.426;2023-06-10T03:05:07;623.08;;;261.67;;
22103;SDS011;11218;48.886;9.426;2023-06-10T03:07:37;633.85;;;271.75;;
22103;SDS011;11218;48.886;9.426;2023-06-10T03:10:05;603.47;;;248.00;;
22103;SDS011;11218;48.886;9.426;2023-06-10T03:12:34;637.88;;;272.65;;
22103;SDS011;11218;48.886;9.426;2023-06-10T03:15:02;606.88;;;251.68;;
22103;SDS011;11218;48.886;9.426;2023-06-10T03:17:32;635.20;;;279.17;;
22103;SDS011;11218;48.886;9.426;2023-06-10T03:20:01;640.17;;;271.83;;
22103;SDS011;11218;48.886;9.426;2023-06-10T03:22:31;637.88;;;273.55;;
22103;SDS011;11218;48.886;9.426;2023-06-10T03:24:59;648.97;;;274.05;;
22103;SDS011;11218;48.886;9.426;2023-06-10T03:27:27;634.30;;;274.08;;
22103;SDS011;11218;48.886;9.426;2023-06-10T03:29:56;658.17;;;282.77;;
22103;SDS011;11218;48.886;9.426;2023-06-10T03:32:24;656.63;;;281.92;;
22103;SDS011;11218;48.886;9.426;2023-06-10T03:34:52;640.63;;;273.50;;
22103;SDS011;11218;48.886;9.426;2023-06-10T03:37:23;620.45;;;262.80;;
22103;SDS011;11218;48.886;9.426;2023-06-10T03:39:53;656.03;;;275.77;;
22103;SDS011;11218;48.886;9.426;2023-06-10T03:42:21;681.00;;;289.13;;
22103;SDS011;11218;48.886;9.426;2023-06-10T03:44:49;725.22;;;326.00;;
22103;SDS011;11218;48.886;9.426;2023-06-10T03:47:17;732.28;;;332.42;;
22103;SDS011;11218;48.886;9.426;2023-06-10T03:49:45;723.38;;;322.85;;
22103;SDS011;11218;48.886;9.426;2023-06-10T03:52:13;722.70;;;329.27;;
22103;SDS011;11218;48.886;9.426;2023-06-10T03:54:41;710.28;;;316.27;;
22103;SDS011;11218;48.886;9.426;2023-06-10T03:57:11;711.05;;;322.52;;
22103;SDS011;11218;48.886;9.426;2023-06-10T03:59:39;704.00;;;314.45;;
22103;SDS011;11218;48.886;9.426;2023-06-10T04:02:07;695.45;;;309.83;;
22103;SDS011;11218;48.886;9.426;2023-06-10T04:04:35;637.05;;;259.83;;
22103;SDS011;11218;48.886;9.426;2023-06-10T04:07:04;640.15;;;268.23;;
22103;SDS011;11218;48.886;9.426;2023-06-10T04:09:32;543.85;;;211.32;;
22103;SDS011;11218;48.886;9.426;2023-06-10T04:12:00;541.63;;;211.00;;
22103;SDS011;11218;48.886;9.426;2023-06-10T04:14:30;551.83;;;216.73;;
22103;SDS011;11218;48.886;9.426;2023-06-10T04:16:58;531.05;;;207.30;;
22103;SDS011;11218;48.886;9.426;2023-06-10T04:19:26;533.05;;;205.73;;
22103;SDS011;11218;48.886;9.426;2023-06-10T04:21:55;522.08;;;200.93;;
22103;SDS011;11218;48.886;9.426;2023-06-10T04:24:24;521.65;;;200.70;;
22103;SDS011;11218;48.886;9.426;2023-06-10T04:26:51;513.65;;;196.20;;
22103;SDS011;11218;48.886;9.426;2023-06-10T04:29:20;525.70;;;204.13;;
22103;SDS011;11218;48.886;9.426;2023-06-10T04:31:49;518.78;;;200.35;;
22103;SDS011;11218;48.886;9.426;2023-06-10T04:34:17;514.58;;;199.73;;
22103;SDS011;11218;48.886;9.426;2023-06-10T04:36:45;508.80;;;195.25;;
22103;SDS011;11218;48.886;9.426;2023-06-10T04:39:16;517.58;;;198.75;;
22103;SDS011;11218;48.886;9.426;2023-06-10T04:41:45;517.08;;;197.55;;
22103;SDS011;11218;48.886;9.426;2023-06-10T04:44:13;522.47;;;202.10;;
22103;SDS011;11218;48.886;9.426;2023-06-10T04:46:42;536.35;;;208.50;;
22103;SDS011;11218;48.886;9.426;2023-06-10T04:49:11;535.55;;;207.70;;
22103;SDS011;11218;48.886;9.426;2023-06-10T04:51:40;532.97;;;205.63;;
22103;SDS011;11218;48.886;9.426;2023-06-10T04:54:09;552.33;;;214.05;;
22103;SDS011;11218;48.886;9.426;2023-06-10T04:56:37;535.85;;;209.07;;
22103;SDS011;11218;48.886;9.426;2023-06-10T04:59:06;565.70;;;229.45;;
22103;SDS011;11218;48.886;9.426;2023-06-10T05:01:34;566.80;;;220.98;;
22103;SDS011;11218;48.886;9.426;2023-06-10T05:04:02;571.58;;;229.43;;
22103;SDS011;11218;48.886;9.426;2023-06-10T05:06:32;584.30;;;237.10;;
22103;SDS011;11218;48.886;9.426;2023-06-10T05:09:02;587.17;;;235.45;;
22103;SDS011;11218;48.886;9.426;2023-06-10T05:11:30;592.95;;;239.73;;
22103;SDS011;11218;48.886;9.426;2023-06-10T05:13:58;618.60;;;253.20;;
22103;SDS011;11218;48.886;9.426;2023-06-10T05:16:26;617.58;;;255.77;;
22103;SDS011;11218;48.886;9.426;2023-06-10T05:18:55;623.17;;;256.58;;
22103;SDS011;11218;48.886;9.426;2023-06-10T05:21:23;634.63;;;260.88;;
22103;SDS011;11218;48.886;9.426;2023-06-10T05:23:52;642.50;;;274.50;;
22103;SDS011;11218;48.886;9.426;2023-06-10T05:26:21;644.17;;;267.92;;
22103;SDS011;11218;48.886;9.426;2023-06-10T05:28:49;629.45;;;261.95;;
22103;SDS011;11218;48.886;9.426;2023-06-10T05:31:18;645.20;;;268.98;;
22103;SDS011;11218;48.886;9.426;2023-06-10T05:33:46;632.60;;;262.13;;
22103;SDS011;11218;48.886;9.426;2023-06-10T05:36:14;636.95;;;267.77;;
22103;SDS011;11218;48.886;9.426;2023-06-10T05:38:42;670.35;;;289.45;;
22103;SDS011;11218;48.886;9.426;2023-06-10T05:41:12;651.15;;;273.33;;
22103;SDS011;11218;48.886;9.426;2023-06-10T05:43:40;667.65;;;284.63;;
22103;SDS011;11218;48.886;9.426;2023-06-10T05:46:09;662.55;;;283.10;;
22103;SDS011;11218;48.886;9.426;2023-06-10T05:48:37;656.80;;;281.00;;
22103;SDS011;11218;48.886;9.426;2023-06-10T05:51:05;705.45;;;317.25;;
22103;SDS011;11218;48.886;9.426;2023-06-10T05:53:33;692.03;;;303.00;;
22103;SDS011;11218;48.886;9.426;2023-06-10T05:56:01;710.75;;;309.92;;
22103;SDS011;11218;48.886;9.426;2023-06-10T05:58:31;706.88;;;308.77;;
22103;SDS011;11218;48.886;9.426;2023-06-10T06:00:59;721.03;;;330.00;;
22103;SDS011;11218;48.886;9.426;2023-06-10T06:03:27;719.47;;;316.60;;
22103;SDS011;11218;48.886;9.426;2023-06-10T06:05:56;732.65;;;323.38;;
22103;SDS011;11218;48.886;9.426;2023-06-10T06:08:24;725.53;;;319.27;;
22103;SDS011;11218;48.886;9.426;2023-06-10T06:10:53;733.88;;;333.45;;
22103;SDS011;11218;48.886;9.426;2023-06-10T06:13:21;722.35;;;333.38;;
22103;SDS011;11218;48.886;9.426;2023-06-10T06:15:51;734.50;;;327.50;;
22103;SDS011;11218;48.886;9.426;2023-06-10T06:18:19;718.80;;;326.88;;
22103;SDS011;11218;48.886;9.426;2023-06-10T06:20:47;709.88;;;321.15;;
22103;SDS011;11218;48.886;9.426;2023-06-10T06:23:16;720.05;;;327.70;;
22103;SDS011;11218;48.886;9.426;2023-06-10T06:25:44;718.65;;;332.95;;
22103;SDS011;11218;48.886;9.426;2023-06-10T06:28:12;722.25;;;337.08;;
22103;SDS011;11218;48.886;9.426;2023-06-10T06:30:40;720.53;;;333.15;;
22103;SDS011;11218;48.886;9.426;2023-06-10T06:33:10;721.55;;;338.95;;
22103;SDS011;11218;48.886;9.426;2023-06-10T06:35:38;725.72;;;333.95;;
22103;SDS011;11218;48.886;9.426;2023-06-10T06:38:06;743.40;;;351.67;;
22103;SDS011;11218;48.886;9.426;2023-06-10T06:40:35;723.60;;;335.73;;
22103;SDS011;11218;48.886;9.426;2023-06-10T06:43:03;735.97;;;344.13;;
22103;SDS011;11218;48.886;9.426;2023-06-10T06:45:31;734.60;;;345.75;;
22103;SDS011;11218;48.886;9.426;2023-06-10T06:48:00;725.30;;;340.75;;
22103;SDS011;11218;48.886;9.426;2023-06-10T06:50:30;735.65;;;347.58;;
22103;SDS011;11218;48.886;9.426;2023-06-10T06:52:58;709.05;;;330.48;;
22103;SDS011;11218;48.886;9.426;2023-06-10T06:55:26;730.97;;;351.02;;
22103;SDS011;11218;48.886;9.426;2023-06-10T06:57:55;722.40;;;347.98;;
22103;SDS011;11218;48.886;9.426;2023-06-10T07:00:23;698.30;;;324.10;;
22103;SDS011;11218;48.886;9.426;2023-06-10T07:02:51;711.97;;;337.40;;
22103;SDS011;11218;48.886;9.426;2023-06-10T07:05:19;734.17;;;363.55;;
22103;SDS011;11218;48.886;9.426;2023-06-10T07:07:49;725.20;;;347.92;;
22103;SDS011;11218;48.886;9.426;2023-06-10T07:10:21;725.60;;;356.00;;
22103;SDS011;11218;48.886;9.426;2023-06-10T07:12:49;728.00;;;354.85;;
22103;SDS011;11218;48.886;9.426;2023-06-10T07:15:18;720.03;;;350.08;;
22103;SDS011;11218;48.886;9.426;2023-06-10T07:17:46;711.92;;;338.70;;
22103;SDS011;11218;48.886;9.426;2023-06-10T07:20:14;698.70;;;332.38;;
22103;SDS011;11218;48.886;9.426;2023-06-10T07:22:44;691.55;;;340.13;;
22103;SDS011;11218;48.886;9.426;2023-06-10T07:25:13;619.40;;;277.33;;
22103;SDS011;11218;48.886;9.426;2023-06-10T07:27:42;692.95;;;341.23;;
22103;SDS011;11218;48.886;9.426;2023-06-10T07:30:11;708.33;;;345.17;;
22103;SDS011;11218;48.886;9.426;2023-06-10T07:32:40;646.90;;;304.85;;
22103;SDS011;11218;48.886;9.426;2023-06-10T07:35:08;660.35;;;315.08;;
22103;SDS011;11218;48.886;9.426;2023-06-10T07:37:38;691.95;;;338.45;;
22103;SDS011;11218;48.886;9.426;2023-06-10T07:40:06;707.65;;;360.48;;
22103;SDS011;11218;48.886;9.426;2023-06-10T07:42:36;721.67;;;372.30;;
22103;SDS011;11218;48.886;9.426;2023-06-10T07:45:05;740.00;;;383.55;;
22103;SDS011;11218;48.886;9.426;2023-06-10T07:47:34;729.35;;;377.27;;
22103;SDS011;11218;48.886;9.426;2023-06-10T07:50:03;748.78;;;407.90;;
22103;SDS011;11218;48.886;9.426;2023-06-10T07:52:31;740.05;;;403.83;;
22103;SDS011;11218;48.886;9.426;2023-06-10T07:54:59;741.13;;;403.67;;
22103;SDS011;11218;48.886;9.426;2023-06-10T07:57:30;736.28;;;409.05;;
22103;SDS011;11218;48.886;9.426;2023-06-10T08:00:10;733.05;;;405.67;;
22103;SDS011;11218;48.886;9.426;2023-06-10T08:02:38;735.08;;;416.58;;
22103;SDS011;11218;48.886;9.426;2023-06-10T08:05:07;751.28;;;436.05;;
22103;SDS011;11218;48.886;9.426;2023-06-10T08:07:36;744.35;;;431.05;;
22103;SDS011;11218;48.886;9.426;2023-06-10T08:10:05;755.15;;;448.95;;
22103;SDS011;11218;48.886;9.426;2023-06-10T08:12:33;740.42;;;429.05;;
22103;SDS011;11218;48.886;9.426;2023-06-10T08:15:02;760.63;;;458.80;;
22103;SDS011;11218;48.886;9.426;2023-06-10T08:17:32;754.67;;;459.00;;
22103;SDS011;11218;48.886;9.426;2023-06-10T08:20:01;753.90;;;471.30;;
22103;SDS011;11218;48.886;9.426;2023-06-10T08:22:29;744.33;;;458.80;;
22103;SDS011;11218;48.886;9.426;2023-06-10T08:24:57;749.08;;;469.42;;
22103;SDS011;11218;48.886;9.426;2023-06-10T08:27:26;747.22;;;462.55;;
22103;SDS011;11218;48.886;9.426;2023-06-10T08:29:54;749.42;;;472.55;;
22103;SDS011;11218;48.886;9.426;2023-06-10T08:32:23;753.63;;;467.25;;
22103;SDS011;11218;48.886;9.426;2023-06-10T08:34:53;737.33;;;459.85;;
22103;SDS011;11218;48.886;9.426;2023-06-10T08:37:21;748.65;;;469.77;;
22103;SDS011;11218;48.886;9.426;2023-06-10T08:39:49;741.97;;;471.15;;
22103;SDS011;11218;48.886;9.426;2023-06-10T08:42:21;752.45;;;485.15;;
22103;SDS011;11218;48.886;9.426;2023-06-10T08:44:53;765.17;;;500.67;;
22103;SDS011;11218;48.886;9.426;2023-06-10T08:47:23;763.97;;;504.70;;
22103;SDS011;11218;48.886;9.426;2023-06-10T08:49:55;765.28;;;505.02;;
22103;SDS011;11218;48.886;9.426;2023-06-10T08:52:27;756.58;;;491.67;;
22103;SDS011;11218;48.886;9.426;2023-06-10T08:55:03;750.47;;;489.75;;
22103;SDS011;11218;48.886;9.426;2023-06-10T08:57:40;738.30;;;466.40;;
22103;SDS011;11218;48.886;9.426;2023-06-10T09:00:09;749.08;;;501.27;;
22103;SDS011;11218;48.886;9.426;2023-06-10T09:02:39;728.38;;;470.60;;
22103;SDS011;11218;48.886;9.426;2023-06-10T09:05:10;734.22;;;485.33;;
22103;SDS011;11218;48.886;9.426;2023-06-10T09:07:38;737.08;;;494.77;;
22103;SDS011;11218;48.886;9.426;2023-06-10T09:10:07;671.30;;;395.17;;
22103;SDS011;11218;48.886;9.426;2023-06-10T09:12:37;707.65;;;444.92;;
22103;SDS011;11218;48.886;9.426;2023-06-10T09:15:05;775.72;;;536.15;;
22103;SDS011;11218;48.886;9.426;2023-06-10T09:17:34;757.30;;;507.20;;
22103;SDS011;11218;48.886;9.426;2023-06-10T09:20:05;764.72;;;527.28;;
22103;SDS011;11218;48.886;9.426;2023-06-10T09:22:37;767.85;;;535.35;;
22103;SDS011;11218;48.886;9.426;2023-06-10T09:25:06;768.33;;;513.80;;
22103;SDS011;11218;48.886;9.426;2023-06-10T09:27:43;760.55;;;522.72;;
22103;SDS011;11218;48.886;9.426;2023-06-10T09:30:25;773.53;;;515.53;;
22103;SDS011;11218;48.886;9.426;2023-06-10T09:32:54;769.05;;;524.42;;
22103;SDS011;11218;48.886;9.426;2023-06-10T09:35:24;730.63;;;463.77;;
22103;SDS011;11218;48.886;9.426;2023-06-10T09:37:55;733.50;;;479.65;;
22103;SDS011;11218;48.886;9.426;2023-06-10T09:40:24;760.28;;;504.58;;
22103;SDS011;11218;48.886;9.426;2023-06-10T09:42:53;744.80;;;484.23;;
22103;SDS011;11218;48.886;9.426;2023-06-10T09:45:22;736.83;;;453.52;;
22103;SDS011;11218;48.886;9.426;2023-06-10T09:47:51;704.65;;;441.92;;
22103;SDS011;11218;48.886;9.426;2023-06-10T09:50:20;717.33;;;465.58;;
22103;SDS011;11218;48.886;9.426;2023-06-10T09:52:49;717.03;;;458.27;;
22103;SDS011;11218;48.886;9.426;2023-06-10T09:55:20;721.03;;;462.92;;
22103;SDS011;11218;48.886;9.426;2023-06-10T09:57:48;752.70;;;507.35;;
22103;SDS011;11218;48.886;9.426;2023-06-10T10:00:17;734.15;;;468.73;;
22103;SDS011;11218;48.886;9.426;2023-06-10T10:02:47;750.10;;;502.70;;
22103;SDS011;11218;48.886;9.426;2023-06-10T10:05:17;682.88;;;404.73;;
22103;SDS011;11218;48.886;9.426;2023-06-10T10:07:46;676.10;;;407.50;;
22103;SDS011;11218;48.886;9.426;2023-06-10T10:10:16;684.38;;;413.17;;
22103;SDS011;11218;48.886;9.426;2023-06-10T10:12:52;687.20;;;420.45;;
22103;SDS011;11218;48.886;9.426;2023-06-10T10:15:27;706.92;;;443.85;;
22103;SDS011;11218;48.886;9.426;2023-06-10T10:17:59;715.83;;;456.17;;
22103;SDS011;11218;48.886;9.426;2023-06-10T10:20:33;711.53;;;447.58;;
22103;SDS011;11218;48.886;9.426;2023-06-10T10:23:03;678.95;;;406.05;;
22103;SDS011;11218;48.886;9.426;2023-06-10T10:25:34;684.58;;;414.65;;
22103;SDS011;11218;48.886;9.426;2023-06-10T10:28:10;679.47;;;408.90;;
22103;SDS011;11218;48.886;9.426;2023-06-10T10:30:40;723.58;;;441.02;;
22103;SDS011;11218;48.886;9.426;2023-06-10T10:33:12;699.50;;;419.23;;
22103;SDS011;11218;48.886;9.426;2023-06-10T10:35:43;737.28;;;482.88;;
22103;SDS011;11218;48.886;9.426;2023-06-10T10:38:13;712.30;;;429.45;;
22103;SDS011;11218;48.886;9.426;2023-06-10T10:40:42;731.47;;;477.48;;
22103;SDS011;11218;48.886;9.426;2023-06-10T10:43:15;735.70;;;467.30;;
22103;SDS011;11218;48.886;9.426;2023-06-10T10:45:45;746.58;;;477.08;;
22103;SDS011;11218;48.886;9.426;2023-06-10T10:48:13;743.60;;;472.77;;
22103;SDS011;11218;48.886;9.426;2023-06-10T10:50:55;713.78;;;434.25;;
22103;SDS011;11218;48.886;9.426;2023-06-10T10:53:24;745.72;;;479.88;;
22103;SDS011;11218;48.886;9.426;2023-06-10T10:55:59;736.95;;;467.77;;
22103;SDS011;11218;48.886;9.426;2023-06-10T10:58:33;720.60;;;447.33;;
22103;SDS011;11218;48.886;9.426;2023-06-10T11:01:09;728.63;;;460.13;;
22103;SDS011;11218;48.886;9.426;2023-06-10T11:03:42;755.78;;;486.80;;
22103;SDS011;11218;48.886;9.426;2023-06-10T11:06:14;710.10;;;425.02;;
22103;SDS011;11218;48.886;9.426;2023-06-10T11:08:46;689.00;;;400.80;;
22103;SDS011;11218;48.886;9.426;2023-06-10T11:11:19;717.08;;;434.10;;
22103;SDS011;11218;48.886;9.426;2023-06-10T11:13:59;728.10;;;462.08;;
22103;SDS011;11218;48.886;9.426;2023-06-10T11:16:39;750.08;;;488.67;;
22103;SDS011;11218;48.886;9.426;2023-06-10T11:19:09;741.38;;;463.77;;
22103;SDS011;11218;48.886;9.426;2023-06-10T11:24:28;674.50;;;385.90;;
22103;SDS011;11218;48.886;9.426;2023-06-10T11:27:16;688.33;;;405.48;;
22103;SDS011;11218;48.886;9.426;2023-06-10T11:29:57;648.70;;;352.83;;
22103;SDS011;11218;48.886;9.426;2023-06-10T11:32:28;721.67;;;450.23;;
22103;SDS011;11218;48.886;9.426;2023-06-10T11:34:59;745.20;;;484.98;;
22103;SDS011;11218;48.886;9.426;2023-06-10T11:37:27;715.58;;;439.90;;
22103;SDS011;11218;48.886;9.426;2023-06-10T11:39:55;752.22;;;479.73;;
22103;SDS011;11218;48.886;9.426;2023-06-10T11:42:23;659.72;;;384.02;;
22103;SDS011;11218;48.886;9.426;2023-06-10T11:44:53;718.92;;;444.70;;
22103;SDS011;11218;48.886;9.426;2023-06-10T11:47:23;713.67;;;444.00;;
22103;SDS011;11218;48.886;9.426;2023-06-10T11:49:55;714.97;;;446.05;;
22103;SDS011;11218;48.886;9.426;2023-06-10T11:52:26;696.17;;;427.98;;
22103;SDS011;11218;48.886;9.426;2023-06-10T11:54:55;748.15;;;504.10;;
22103;SDS011;11218;48.886;9.426;2023-06-10T11:57:23;709.35;;;464.67;;
22103;SDS011;11218;48.886;9.426;2023-06-10T11:59:51;685.00;;;428.52;;
22103;SDS011;11218;48.886;9.426;2023-06-10T12:02:19;700.05;;;445.27;;
22103;SDS011;11218;48.886;9.426;2023-06-10T12:04:50;757.58;;;522.53;;
22103;SDS011;11218;48.886;9.426;2023-06-10T12:07:18;717.95;;;473.23;;
22103;SDS011;11218;48.886;9.426;2023-06-10T12:09:57;715.60;;;468.02;;
22103;SDS011;11218;48.886;9.426;2023-06-10T12:12:47;630.45;;;371.08;;
22103;SDS011;11218;48.886;9.426;2023-06-10T12:15:23;642.95;;;371.58;;
22103;SDS011;11218;48.886;9.426;2023-06-10T12:17:52;667.63;;;408.25;;
22103;SDS011;11218;48.886;9.426;2023-06-10T12:20:28;681.63;;;418.13;;
22103;SDS011;11218;48.886;9.426;2023-06-10T12:22:59;757.65;;;522.80;;
22103;SDS011;11218;48.886;9.426;2023-06-10T12:25:28;748.88;;;505.85;;
22103;SDS011;11218;48.886;9.426;2023-06-10T12:27:57;744.78;;;511.15;;
22103;SDS011;11218;48.886;9.426;2023-06-10T12:30:27;720.80;;;474.08;;
22103;SDS011;11218;48.886;9.426;2023-06-10T12:32:55;751.78;;;524.30;;
22103;SDS011;11218;48.886;9.426;2023-06-10T12:35:24;765.08;;;531.53;;
22103;SDS011;11218;48.886;9.426;2023-06-10T12:37:55;763.55;;;537.97;;
22103;SDS011;11218;48.886;9.426;2023-06-10T12:40:26;777.58;;;541.92;;
22103;SDS011;11218;48.886;9.426;2023-06-10T12:42:55;750.63;;;518.63;;
22103;SDS011;11218;48.886;9.426;2023-06-10T12:45:26;764.97;;;532.00;;
22103;SDS011;11218;48.886;9.426;2023-06-10T12:48:05;714.60;;;470.08;;
22103;SDS011;11218;48.886;9.426;2023-06-10T12:50:36;751.90;;;518.72;;
22103;SDS011;11218;48.886;9.426;2023-06-10T12:53:07;762.78;;;540.85;;
22103;SDS011;11218;48.886;9.426;2023-06-10T12:55:36;737.20;;;512.00;;
22103;SDS011;11218;48.886;9.426;2023-06-10T12:58:04;741.97;;;515.03;;
22103;SDS011;11218;48.886;9.426;2023-06-10T13:00:32;767.55;;;550.30;;
22103;SDS011;11218;48.886;9.426;2023-06-10T13:03:02;745.80;;;529.15;;
22103;SDS011;11218;48.886;9.426;2023-06-10T13:05:32;747.33;;;528.92;;
22103;SDS011;11218;48.886;9.426;2023-06-10T13:08:04;725.42;;;500.10;;
22103;SDS011;11218;48.886;9.426;2023-06-10T13:10:34;707.58;;;474.33;;
22103;SDS011;11218;48.886;9.426;2023-06-10T13:13:03;725.92;;;507.10;;
22103;SDS011;11218;48.886;9.426;2023-06-10T13:15:34;688.78;;;459.70;;
22103;SDS011;11218;48.886;9.426;2023-06-10T13:18:09;679.72;;;439.10;;
22103;SDS011;11218;48.886;9.426;2023-06-10T13:20:37;678.22;;;449.13;;
22103;SDS011;11218;48.886;9.426;2023-06-10T13:23:06;696.22;;;464.58;;
22103;SDS011;11218;48.886;9.426;2023-06-10T13:25:36;691.67;;;465.75;;
22103;SDS011;11218;48.886;9.426;2023-06-10T13:28:04;656.17;;;417.80;;
22103;SDS011;11218;48.886;9.426;2023-06-10T13:30:33;732.85;;;502.80;;
22103;SDS011;11218;48.886;9.426;2023-06-10T13:33:01;734.13;;;515.05;;
22103;SDS011;11218;48.886;9.426;2023-06-10T13:35:29;737.95;;;529.20;;
22103;SDS011;11218;48.886;9.426;2023-06-10T13:37:57;727.72;;;517.10;;
22103;SDS011;11218;48.886;9.426;2023-06-10T13:40:26;743.15;;;524.53;;
22103;SDS011;11218;48.886;9.426;2023-06-10T13:42:55;717.22;;;513.72;;
22103;SDS011;11218;48.886;9.426;2023-06-10T13:45:23;710.38;;;488.73;;
22103;SDS011;11218;48.886;9.426;2023-06-10T13:47:52;716.42;;;503.67;;
22103;SDS011;11218;48.886;9.426;2023-06-10T13:50:20;712.75;;;499.02;;
22103;SDS011;11218;48.886;9.426;2023-06-10T13:52:48;714.65;;;499.48;;
22103;SDS011;11218;48.886;9.426;2023-06-10T13:55:17;693.00;;;461.55;;
22103;SDS011;11218;48.886;9.426;2023-06-10T13:57:46;706.15;;;493.80;;
22103;SDS011;11218;48.886;9.426;2023-06-10T14:00:17;714.72;;;500.15;;
22103;SDS011;11218;48.886;9.426;2023-06-10T14:02:46;714.40;;;504.30;;
22103;SDS011;11218;48.886;9.426;2023-06-10T14:05:14;696.17;;;482.58;;
22103;SDS011;11218;48.886;9.426;2023-06-10T14:07:42;667.33;;;435.15;;
22103;SDS011;11218;48.886;9.426;2023-06-10T14:10:11;690.78;;;472.48;;
22103;SDS011;11218;48.886;9.426;2023-06-10T14:12:39;660.70;;;432.48;;